sensor_id;sensor_type;location;lat;lon;timestamp;P1;durP1;ratioP1;P2;durP2;ratioP2
21507;SDS011;10915;54.352;9.074;2022-10-13T00:00:33;14.40;;;9.43;;
21507;SDS011;10915;54.352;9.074;2022-10-13T00:03:00;14.37;;;8.47;;
21507;SDS011;10915;54.352;9.074;2022-10-13T00:05:27;17.50;;;10.00;;
21507;SDS011;10915;54.352;9.074;2022-10-13T00:07:54;13.13;;;9.07;;
21507;SDS011;10915;54.352;9.074;2022-10-13T00:10:19;13.67;;;9.73;;
21507;SDS011;10915;54.352;9.074;2022-10-13T00:12:45;13.83;;;8.60;;
21507;SDS011;10915;54.352;9.074;2022-10-13T00:15:11;12.53;;;8.83;;
21507;SDS011;10915;54.352;9.074;2022-10-13T00:17:37;14.73;;;9.87;;
21507;SDS011;10915;54.352;9.074;2022-10-13T00:20:03;15.93;;;9.90;;
21507;SDS011;10915;54.352;9.074;2022-10-13T00:22:30;17.43;;;9.50;;
21507;SDS011;10915;54.352;9.074;2022-10-13T00:24:56;16.70;;;9.40;;
21507;SDS011;10915;54.352;9.074;2022-10-13T00:27:22;10.43;;;8.27;;
21507;SDS011;10915;54.352;9.074;2022-10-13T00:29:47;12.30;;;8.10;;
21507;SDS011;10915;54.352;9.074;2022-10-13T00:32:13;12.73;;;8.53;;
21507;SDS011;10915;54.352;9.074;2022-10-13T00:34:39;12.93;;;8.43;;
21507;SDS011;10915;54.352;9.074;2022-10-13T00:37:04;15.77;;;9.67;;
21507;SDS011;10915;54.352;9.074;2022-10-13T00:39:30;14.63;;;9.63;;
21507;SDS011;10915;54.352;9.074;2022-10-13T00:41:56;14.17;;;9.87;;
21507;SDS011;10915;54.352;9.074;2022-10-13T00:47:19;15.80;;;10.03;;
21507;SDS011;10915;54.352;9.074;2022-10-13T00:49:45;19.77;;;11.30;;
21507;SDS011;10915;54.352;9.074;2022-10-13T00:52:13;19.30;;;11.03;;
21507;SDS011;10915;54.352;9.074;2022-10-13T00:54:40;19.47;;;11.00;;
21507;SDS011;10915;54.352;9.074;2022-10-13T00:57:06;13.20;;;9.23;;
21507;SDS011;10915;54.352;9.074;2022-10-13T00:59:33;16.40;;;9.93;;
21507;SDS011;10915;54.352;9.074;2022-10-13T01:02:00;20.13;;;11.23;;
21507;SDS011;10915;54.352;9.074;2022-10-13T01:04:29;15.40;;;9.80;;
21507;SDS011;10915;54.352;9.074;2022-10-13T01:06:58;18.47;;;10.20;;
21507;SDS011;10915;54.352;9.074;2022-10-13T01:09:25;17.40;;;11.07;;
21507;SDS011;10915;54.352;9.074;2022-10-13T01:15:21;18.20;;;11.50;;
21507;SDS011;10915;54.352;9.074;2022-10-13T01:22:53;19.33;;;10.43;;
21507;SDS011;10915;54.352;9.074;2022-10-13T01:31:32;15.13;;;11.43;;
21507;SDS011;10915;54.352;9.074;2022-10-13T01:34:22;19.47;;;11.23;;
21507;SDS011;10915;54.352;9.074;2022-10-13T01:39:44;18.20;;;11.70;;
21507;SDS011;10915;54.352;9.074;2022-10-13T01:42:26;16.07;;;11.30;;
21507;SDS011;10915;54.352;9.074;2022-10-13T01:45:07;17.17;;;11.37;;
21507;SDS011;10915;54.352;9.074;2022-10-13T01:47:36;17.50;;;11.83;;
21507;SDS011;10915;54.352;9.074;2022-10-13T01:50:03;17.27;;;11.03;;
21507;SDS011;10915;54.352;9.074;2022-10-13T01:52:32;19.97;;;12.73;;
21507;SDS011;10915;54.352;9.074;2022-10-13T01:55:05;15.63;;;11.20;;
21507;SDS011;10915;54.352;9.074;2022-10-13T01:57:33;16.03;;;10.57;;
21507;SDS011;10915;54.352;9.074;2022-10-13T02:00:06;17.63;;;10.80;;
21507;SDS011;10915;54.352;9.074;2022-10-13T02:02:57;16.40;;;10.80;;
21507;SDS011;10915;54.352;9.074;2022-10-13T02:05:41;16.10;;;10.40;;
21507;SDS011;10915;54.352;9.074;2022-10-13T02:10:51;13.33;;;9.53;;
21507;SDS011;10915;54.352;9.074;2022-10-13T02:13:23;13.13;;;9.63;;
21507;SDS011;10915;54.352;9.074;2022-10-13T02:15:52;14.43;;;9.20;;
21507;SDS011;10915;54.352;9.074;2022-10-13T02:18:22;13.67;;;9.80;;
21507;SDS011;10915;54.352;9.074;2022-10-13T02:20:51;12.63;;;8.93;;
21507;SDS011;10915;54.352;9.074;2022-10-13T02:23:19;14.93;;;9.43;;
21507;SDS011;10915;54.352;9.074;2022-10-13T02:25:44;15.87;;;9.47;;
21507;SDS011;10915;54.352;9.074;2022-10-13T02:28:12;13.77;;;9.50;;
21507;SDS011;10915;54.352;9.074;2022-10-13T02:30:39;18.27;;;10.00;;
21507;SDS011;10915;54.352;9.074;2022-10-13T02:33:05;12.87;;;9.37;;
21507;SDS011;10915;54.352;9.074;2022-10-13T02:35:32;15.00;;;9.73;;
21507;SDS011;10915;54.352;9.074;2022-10-13T02:37:58;14.07;;;8.13;;
21507;SDS011;10915;54.352;9.074;2022-10-13T02:40:24;16.43;;;10.20;;
21507;SDS011;10915;54.352;9.074;2022-10-13T02:42:50;17.67;;;10.07;;
21507;SDS011;10915;54.352;9.074;2022-10-13T02:45:15;14.40;;;10.37;;
21507;SDS011;10915;54.352;9.074;2022-10-13T02:47:41;18.27;;;10.00;;
21507;SDS011;10915;54.352;9.074;2022-10-13T02:50:07;18.87;;;9.50;;
21507;SDS011;10915;54.352;9.074;2022-10-13T02:52:33;14.77;;;10.23;;
21507;SDS011;10915;54.352;9.074;2022-10-13T02:54:58;18.13;;;9.77;;
21507;SDS011;10915;54.352;9.074;2022-10-13T02:57:24;15.90;;;9.97;;
21507;SDS011;10915;54.352;9.074;2022-10-13T03:02:19;13.67;;;8.93;;
21507;SDS011;10915;54.352;9.074;2022-10-13T03:04:46;16.33;;;9.47;;
21507;SDS011;10915;54.352;9.074;2022-10-13T03:07:12;13.00;;;8.70;;
21507;SDS011;10915;54.352;9.074;2022-10-13T03:09:38;14.10;;;9.47;;
21507;SDS011;10915;54.352;9.074;2022-10-13T03:12:04;14.43;;;9.83;;
21507;SDS011;10915;54.352;9.074;2022-10-13T03:14:29;15.10;;;9.27;;
21507;SDS011;10915;54.352;9.074;2022-10-13T03:16:55;16.50;;;10.03;;
21507;SDS011;10915;54.352;9.074;2022-10-13T03:19:21;14.27;;;9.57;;
21507;SDS011;10915;54.352;9.074;2022-10-13T03:21:46;14.80;;;9.93;;
21507;SDS011;10915;54.352;9.074;2022-10-13T03:24:12;15.40;;;9.17;;
21507;SDS011;10915;54.352;9.074;2022-10-13T03:26:37;16.70;;;8.93;;
21507;SDS011;10915;54.352;9.074;2022-10-13T03:29:03;18.47;;;10.27;;
21507;SDS011;10915;54.352;9.074;2022-10-13T03:31:29;12.83;;;9.80;;
21507;SDS011;10915;54.352;9.074;2022-10-13T03:33:54;13.53;;;8.97;;
21507;SDS011;10915;54.352;9.074;2022-10-13T03:36:20;15.20;;;9.80;;
21507;SDS011;10915;54.352;9.074;2022-10-13T03:38:46;15.00;;;10.07;;
21507;SDS011;10915;54.352;9.074;2022-10-13T03:41:12;13.87;;;9.00;;
21507;SDS011;10915;54.352;9.074;2022-10-13T03:43:40;13.57;;;9.20;;
21507;SDS011;10915;54.352;9.074;2022-10-13T03:46:07;16.53;;;10.13;;
21507;SDS011;10915;54.352;9.074;2022-10-13T03:48:34;16.53;;;9.13;;
21507;SDS011;10915;54.352;9.074;2022-10-13T03:51:04;16.17;;;9.77;;
21507;SDS011;10915;54.352;9.074;2022-10-13T03:53:31;13.47;;;9.77;;
21507;SDS011;10915;54.352;9.074;2022-10-13T03:55:57;17.80;;;9.63;;
21507;SDS011;10915;54.352;9.074;2022-10-13T03:58:24;13.40;;;10.40;;
21507;SDS011;10915;54.352;9.074;2022-10-13T04:00:52;13.83;;;10.00;;
21507;SDS011;10915;54.352;9.074;2022-10-13T04:03:18;17.03;;;10.03;;
21507;SDS011;10915;54.352;9.074;2022-10-13T04:05:44;13.50;;;9.23;;
21507;SDS011;10915;54.352;9.074;2022-10-13T04:08:10;14.70;;;9.53;;
21507;SDS011;10915;54.352;9.074;2022-10-13T04:10:36;18.93;;;10.57;;
21507;SDS011;10915;54.352;9.074;2022-10-13T04:13:03;16.73;;;10.43;;
21507;SDS011;10915;54.352;9.074;2022-10-13T04:15:29;17.23;;;10.03;;
21507;SDS011;10915;54.352;9.074;2022-10-13T04:17:55;13.63;;;8.97;;
21507;SDS011;10915;54.352;9.074;2022-10-13T04:20:21;18.33;;;10.40;;
21507;SDS011;10915;54.352;9.074;2022-10-13T04:22:46;17.53;;;9.60;;
21507;SDS011;10915;54.352;9.074;2022-10-13T04:25:12;18.67;;;9.93;;
21507;SDS011;10915;54.352;9.074;2022-10-13T04:27:38;18.23;;;10.83;;
21507;SDS011;10915;54.352;9.074;2022-10-13T04:30:04;14.00;;;9.93;;
21507;SDS011;10915;54.352;9.074;2022-10-13T04:32:31;15.47;;;9.87;;
21507;SDS011;10915;54.352;9.074;2022-10-13T04:34:56;17.17;;;10.10;;
21507;SDS011;10915;54.352;9.074;2022-10-13T04:37:23;18.57;;;10.60;;
21507;SDS011;10915;54.352;9.074;2022-10-13T04:39:49;12.20;;;9.60;;
21507;SDS011;10915;54.352;9.074;2022-10-13T04:42:14;18.83;;;10.70;;
21507;SDS011;10915;54.352;9.074;2022-10-13T04:44:40;18.70;;;12.13;;
21507;SDS011;10915;54.352;9.074;2022-10-13T04:47:05;17.90;;;11.13;;
21507;SDS011;10915;54.352;9.074;2022-10-13T04:49:31;18.77;;;11.80;;
21507;SDS011;10915;54.352;9.074;2022-10-13T04:51:57;16.77;;;10.70;;
21507;SDS011;10915;54.352;9.074;2022-10-13T04:54:22;16.03;;;10.07;;
21507;SDS011;10915;54.352;9.074;2022-10-13T04:56:48;15.97;;;10.23;;
21507;SDS011;10915;54.352;9.074;2022-10-13T04:59:14;16.67;;;10.37;;
21507;SDS011;10915;54.352;9.074;2022-10-13T05:01:39;18.33;;;10.93;;
21507;SDS011;10915;54.352;9.074;2022-10-13T05:04:06;16.80;;;10.23;;
21507;SDS011;10915;54.352;9.074;2022-10-13T05:06:32;13.37;;;9.57;;
21507;SDS011;10915;54.352;9.074;2022-10-13T05:08:59;16.30;;;10.73;;
21507;SDS011;10915;54.352;9.074;2022-10-13T05:11:26;19.43;;;11.03;;
21507;SDS011;10915;54.352;9.074;2022-10-13T05:13:52;13.83;;;10.70;;
21507;SDS011;10915;54.352;9.074;2022-10-13T05:16:19;19.97;;;11.70;;
21507;SDS011;10915;54.352;9.074;2022-10-13T05:18:46;13.93;;;10.17;;
21507;SDS011;10915;54.352;9.074;2022-10-13T05:21:17;19.93;;;12.17;;
21507;SDS011;10915;54.352;9.074;2022-10-13T05:23:44;18.27;;;11.47;;
21507;SDS011;10915;54.352;9.074;2022-10-13T05:26:11;20.07;;;12.77;;
21507;SDS011;10915;54.352;9.074;2022-10-13T05:28:39;20.07;;;11.43;;
21507;SDS011;10915;54.352;9.074;2022-10-13T05:31:11;17.67;;;11.27;;
21507;SDS011;10915;54.352;9.074;2022-10-13T05:33:38;17.37;;;11.70;;
21507;SDS011;10915;54.352;9.074;2022-10-13T05:36:08;20.50;;;11.63;;
21507;SDS011;10915;54.352;9.074;2022-10-13T05:38:35;16.67;;;11.90;;
21507;SDS011;10915;54.352;9.074;2022-10-13T05:41:08;19.27;;;12.10;;
21507;SDS011;10915;54.352;9.074;2022-10-13T05:43:38;18.77;;;11.37;;
21507;SDS011;10915;54.352;9.074;2022-10-13T05:46:05;18.43;;;10.47;;
21507;SDS011;10915;54.352;9.074;2022-10-13T05:48:32;21.10;;;11.60;;
21507;SDS011;10915;54.352;9.074;2022-10-13T05:50:58;18.80;;;10.87;;
21507;SDS011;10915;54.352;9.074;2022-10-13T05:53:32;19.23;;;11.27;;
21507;SDS011;10915;54.352;9.074;2022-10-13T05:56:03;17.77;;;10.70;;
21507;SDS011;10915;54.352;9.074;2022-10-13T05:58:36;17.40;;;11.13;;
21507;SDS011;10915;54.352;9.074;2022-10-13T06:01:07;17.80;;;10.97;;
21507;SDS011;10915;54.352;9.074;2022-10-13T06:03:37;15.43;;;11.37;;
21507;SDS011;10915;54.352;9.074;2022-10-13T06:06:04;14.77;;;10.70;;
21507;SDS011;10915;54.352;9.074;2022-10-13T06:08:29;15.90;;;11.03;;
21507;SDS011;10915;54.352;9.074;2022-10-13T06:10:55;18.23;;;11.17;;
21507;SDS011;10915;54.352;9.074;2022-10-13T06:13:21;21.43;;;12.57;;
21507;SDS011;10915;54.352;9.074;2022-10-13T06:15:47;16.97;;;11.20;;
21507;SDS011;10915;54.352;9.074;2022-10-13T06:18:12;15.90;;;10.90;;
21507;SDS011;10915;54.352;9.074;2022-10-13T06:20:38;17.90;;;11.30;;
21507;SDS011;10915;54.352;9.074;2022-10-13T06:23:03;17.70;;;11.57;;
21507;SDS011;10915;54.352;9.074;2022-10-13T06:25:30;16.67;;;10.90;;
21507;SDS011;10915;54.352;9.074;2022-10-13T06:27:56;19.17;;;11.63;;
21507;SDS011;10915;54.352;9.074;2022-10-13T06:30:23;18.97;;;11.93;;
21507;SDS011;10915;54.352;9.074;2022-10-13T06:32:49;19.13;;;12.43;;
21507;SDS011;10915;54.352;9.074;2022-10-13T06:35:15;19.80;;;11.93;;
21507;SDS011;10915;54.352;9.074;2022-10-13T06:37:40;19.17;;;13.03;;
21507;SDS011;10915;54.352;9.074;2022-10-13T06:40:06;20.17;;;12.17;;
21507;SDS011;10915;54.352;9.074;2022-10-13T06:42:32;23.93;;;13.20;;
21507;SDS011;10915;54.352;9.074;2022-10-13T06:44:58;18.23;;;13.17;;
21507;SDS011;10915;54.352;9.074;2022-10-13T06:47:24;17.97;;;13.37;;
21507;SDS011;10915;54.352;9.074;2022-10-13T06:49:49;18.93;;;12.97;;
21507;SDS011;10915;54.352;9.074;2022-10-13T06:52:15;17.43;;;12.27;;
21507;SDS011;10915;54.352;9.074;2022-10-13T06:54:41;21.57;;;14.43;;
21507;SDS011;10915;54.352;9.074;2022-10-13T06:57:06;20.80;;;14.63;;
21507;SDS011;10915;54.352;9.074;2022-10-13T06:59:32;21.90;;;14.53;;
21507;SDS011;10915;54.352;9.074;2022-10-13T07:01:57;24.53;;;15.63;;
21507;SDS011;10915;54.352;9.074;2022-10-13T07:04:23;22.30;;;15.80;;
21507;SDS011;10915;54.352;9.074;2022-10-13T07:06:49;22.80;;;15.07;;
21507;SDS011;10915;54.352;9.074;2022-10-13T07:09:15;23.63;;;15.10;;
21507;SDS011;10915;54.352;9.074;2022-10-13T07:11:45;22.00;;;15.83;;
21507;SDS011;10915;54.352;9.074;2022-10-13T07:14:11;23.83;;;16.07;;
21507;SDS011;10915;54.352;9.074;2022-10-13T07:16:38;21.30;;;14.57;;
21507;SDS011;10915;54.352;9.074;2022-10-13T07:19:04;23.20;;;14.90;;
21507;SDS011;10915;54.352;9.074;2022-10-13T07:21:30;23.37;;;15.67;;
21507;SDS011;10915;54.352;9.074;2022-10-13T07:23:55;22.67;;;16.00;;
21507;SDS011;10915;54.352;9.074;2022-10-13T07:26:21;20.30;;;15.03;;
21507;SDS011;10915;54.352;9.074;2022-10-13T07:28:47;22.40;;;15.33;;
21507;SDS011;10915;54.352;9.074;2022-10-13T07:31:14;24.87;;;15.40;;
21507;SDS011;10915;54.352;9.074;2022-10-13T07:33:42;25.20;;;15.93;;
21507;SDS011;10915;54.352;9.074;2022-10-13T07:36:10;24.23;;;16.23;;
21507;SDS011;10915;54.352;9.074;2022-10-13T07:38:36;21.53;;;15.80;;
21507;SDS011;10915;54.352;9.074;2022-10-13T07:41:03;24.17;;;16.37;;
21507;SDS011;10915;54.352;9.074;2022-10-13T07:43:31;24.70;;;14.80;;
21507;SDS011;10915;54.352;9.074;2022-10-13T07:45:57;24.03;;;16.10;;
21507;SDS011;10915;54.352;9.074;2022-10-13T07:48:25;26.23;;;15.27;;
21507;SDS011;10915;54.352;9.074;2022-10-13T07:50:51;21.50;;;15.03;;
21507;SDS011;10915;54.352;9.074;2022-10-13T07:53:17;26.93;;;16.77;;
21507;SDS011;10915;54.352;9.074;2022-10-13T07:55:42;23.53;;;17.83;;
21507;SDS011;10915;54.352;9.074;2022-10-13T07:58:08;23.87;;;17.00;;
21507;SDS011;10915;54.352;9.074;2022-10-13T08:00:34;22.43;;;15.30;;
21507;SDS011;10915;54.352;9.074;2022-10-13T08:02:59;23.70;;;15.67;;
21507;SDS011;10915;54.352;9.074;2022-10-13T08:05:25;20.17;;;14.93;;
21507;SDS011;10915;54.352;9.074;2022-10-13T08:07:51;25.70;;;16.93;;
21507;SDS011;10915;54.352;9.074;2022-10-13T08:10:16;19.80;;;14.57;;
21507;SDS011;10915;54.352;9.074;2022-10-13T08:12:42;20.90;;;15.47;;
21507;SDS011;10915;54.352;9.074;2022-10-13T08:15:08;21.00;;;15.03;;
21507;SDS011;10915;54.352;9.074;2022-10-13T08:17:34;20.10;;;14.30;;
21507;SDS011;10915;54.352;9.074;2022-10-13T08:20:00;17.33;;;13.60;;
21507;SDS011;10915;54.352;9.074;2022-10-13T08:22:26;24.33;;;17.13;;
21507;SDS011;10915;54.352;9.074;2022-10-13T08:24:52;21.50;;;14.60;;
21507;SDS011;10915;54.352;9.074;2022-10-13T08:27:19;22.63;;;16.00;;
21507;SDS011;10915;54.352;9.074;2022-10-13T08:29:47;21.20;;;15.20;;
21507;SDS011;10915;54.352;9.074;2022-10-13T08:32:14;22.67;;;15.77;;
21507;SDS011;10915;54.352;9.074;2022-10-13T08:34:40;28.53;;;17.50;;
21507;SDS011;10915;54.352;9.074;2022-10-13T08:37:05;22.27;;;15.37;;
21507;SDS011;10915;54.352;9.074;2022-10-13T08:39:36;29.20;;;16.23;;
21507;SDS011;10915;54.352;9.074;2022-10-13T08:42:02;18.93;;;15.20;;
21507;SDS011;10915;54.352;9.074;2022-10-13T08:44:37;23.70;;;17.03;;
21507;SDS011;10915;54.352;9.074;2022-10-13T08:49:39;21.73;;;16.33;;
21507;SDS011;10915;54.352;9.074;2022-10-13T08:52:08;24.97;;;17.30;;
21507;SDS011;10915;54.352;9.074;2022-10-13T08:54:41;23.73;;;17.40;;
21507;SDS011;10915;54.352;9.074;2022-10-13T08:57:07;18.43;;;15.70;;
21507;SDS011;10915;54.352;9.074;2022-10-13T08:59:34;25.83;;;17.37;;
21507;SDS011;10915;54.352;9.074;2022-10-13T09:02:00;23.73;;;15.97;;
21507;SDS011;10915;54.352;9.074;2022-10-13T09:04:34;23.27;;;16.20;;
21507;SDS011;10915;54.352;9.074;2022-10-13T09:09:35;26.67;;;17.07;;
21507;SDS011;10915;54.352;9.074;2022-10-13T09:12:05;24.17;;;17.73;;
21507;SDS011;10915;54.352;9.074;2022-10-13T09:14:32;23.40;;;16.83;;
21507;SDS011;10915;54.352;9.074;2022-10-13T09:19:57;27.23;;;17.17;;
21507;SDS011;10915;54.352;9.074;2022-10-13T09:27:47;29.73;;;18.50;;
21507;SDS011;10915;54.352;9.074;2022-10-13T09:30:22;36.67;;;19.93;;
21507;SDS011;10915;54.352;9.074;2022-10-13T09:33:13;26.93;;;18.50;;
21507;SDS011;10915;54.352;9.074;2022-10-13T09:35:47;21.50;;;16.20;;
21507;SDS011;10915;54.352;9.074;2022-10-13T09:38:35;31.30;;;19.07;;
21507;SDS011;10915;54.352;9.074;2022-10-13T09:46:20;25.27;;;17.13;;
21507;SDS011;10915;54.352;9.074;2022-10-13T09:49:04;30.53;;;18.80;;
21507;SDS011;10915;54.352;9.074;2022-10-13T09:51:52;30.17;;;18.67;;
21507;SDS011;10915;54.352;9.074;2022-10-13T09:54:47;25.57;;;17.80;;
21507;SDS011;10915;54.352;9.074;2022-10-13T10:13:57;26.77;;;18.63;;
21507;SDS011;10915;54.352;9.074;2022-10-13T10:16:33;22.57;;;16.87;;
21507;SDS011;10915;54.352;9.074;2022-10-13T10:29:26;26.67;;;16.43;;
21507;SDS011;10915;54.352;9.074;2022-10-13T10:32:04;36.13;;;19.77;;
21507;SDS011;10915;54.352;9.074;2022-10-13T10:34:55;30.00;;;19.70;;
21507;SDS011;10915;54.352;9.074;2022-10-13T10:40:25;30.83;;;20.50;;
21507;SDS011;10915;54.352;9.074;2022-10-13T10:43:29;30.33;;;20.00;;
21507;SDS011;10915;54.352;9.074;2022-10-13T10:46:02;34.97;;;20.47;;
21507;SDS011;10915;54.352;9.074;2022-10-13T10:48:37;28.13;;;19.80;;
21507;SDS011;10915;54.352;9.074;2022-10-13T10:51:07;28.93;;;19.73;;
21507;SDS011;10915;54.352;9.074;2022-10-13T11:06:44;33.20;;;19.97;;
21507;SDS011;10915;54.352;9.074;2022-10-13T11:09:10;30.73;;;21.07;;
21507;SDS011;10915;54.352;9.074;2022-10-13T11:11:39;28.73;;;20.17;;
21507;SDS011;10915;54.352;9.074;2022-10-13T11:16:39;28.23;;;20.97;;
21507;SDS011;10915;54.352;9.074;2022-10-13T11:19:29;28.37;;;20.77;;
21507;SDS011;10915;54.352;9.074;2022-10-13T11:35:16;26.87;;;20.30;;
21507;SDS011;10915;54.352;9.074;2022-10-13T11:57:24;33.77;;;20.97;;
21507;SDS011;10915;54.352;9.074;2022-10-13T11:59:52;32.57;;;22.37;;
21507;SDS011;10915;54.352;9.074;2022-10-13T12:02:19;29.87;;;21.20;;
21507;SDS011;10915;54.352;9.074;2022-10-13T12:05:00;30.73;;;22.23;;
21507;SDS011;10915;54.352;9.074;2022-10-13T12:07:50;32.70;;;22.60;;
21507;SDS011;10915;54.352;9.074;2022-10-13T12:10:22;32.57;;;22.57;;
21507;SDS011;10915;54.352;9.074;2022-10-13T12:12:54;32.80;;;23.80;;
21507;SDS011;10915;54.352;9.074;2022-10-13T12:21:24;30.70;;;23.73;;
21507;SDS011;10915;54.352;9.074;2022-10-13T12:23:49;30.30;;;24.53;;
21507;SDS011;10915;54.352;9.074;2022-10-13T12:26:29;31.47;;;24.57;;
21507;SDS011;10915;54.352;9.074;2022-10-13T12:29:01;35.77;;;26.70;;
21507;SDS011;10915;54.352;9.074;2022-10-13T12:31:37;34.40;;;25.07;;
21507;SDS011;10915;54.352;9.074;2022-10-13T12:34:12;39.67;;;27.33;;
21507;SDS011;10915;54.352;9.074;2022-10-13T12:36:44;33.33;;;24.47;;
21507;SDS011;10915;54.352;9.074;2022-10-13T12:39:15;32.23;;;25.20;;
21507;SDS011;10915;54.352;9.074;2022-10-13T12:41:49;35.60;;;25.67;;
21507;SDS011;10915;54.352;9.074;2022-10-13T12:44:19;37.87;;;27.30;;
21507;SDS011;10915;54.352;9.074;2022-10-13T12:46:53;34.67;;;26.53;;
21507;SDS011;10915;54.352;9.074;2022-10-13T12:51:55;36.57;;;26.00;;
21507;SDS011;10915;54.352;9.074;2022-10-13T12:54:31;33.40;;;26.30;;
21507;SDS011;10915;54.352;9.074;2022-10-13T12:57:03;36.33;;;26.80;;
21507;SDS011;10915;54.352;9.074;2022-10-13T12:59:40;38.93;;;28.37;;
21507;SDS011;10915;54.352;9.074;2022-10-13T13:02:18;37.13;;;27.57;;
21507;SDS011;10915;54.352;9.074;2022-10-13T13:04:53;34.47;;;27.57;;
21507;SDS011;10915;54.352;9.074;2022-10-13T13:07:30;39.53;;;27.60;;
21507;SDS011;10915;54.352;9.074;2022-10-13T13:10:12;41.73;;;30.67;;
21507;SDS011;10915;54.352;9.074;2022-10-13T13:12:40;42.30;;;30.10;;
21507;SDS011;10915;54.352;9.074;2022-10-13T13:15:17;39.53;;;30.47;;
21507;SDS011;10915;54.352;9.074;2022-10-13T13:20:59;38.63;;;30.57;;
21507;SDS011;10915;54.352;9.074;2022-10-13T13:23:26;40.83;;;32.07;;
21507;SDS011;10915;54.352;9.074;2022-10-13T13:28:30;40.20;;;31.40;;
21507;SDS011;10915;54.352;9.074;2022-10-13T13:30:56;36.87;;;29.53;;
21507;SDS011;10915;54.352;9.074;2022-10-13T13:33:23;37.67;;;31.23;;
21507;SDS011;10915;54.352;9.074;2022-10-13T13:35:49;43.40;;;30.70;;
21507;SDS011;10915;54.352;9.074;2022-10-13T13:38:16;39.70;;;31.40;;
21507;SDS011;10915;54.352;9.074;2022-10-13T13:40:48;46.33;;;32.43;;
21507;SDS011;10915;54.352;9.074;2022-10-13T13:43:13;38.87;;;29.57;;
21507;SDS011;10915;54.352;9.074;2022-10-13T13:45:39;41.63;;;29.83;;
21507;SDS011;10915;54.352;9.074;2022-10-13T13:48:05;44.90;;;31.13;;
21507;SDS011;10915;54.352;9.074;2022-10-13T13:50:40;44.00;;;31.40;;
21507;SDS011;10915;54.352;9.074;2022-10-13T13:53:05;36.73;;;29.33;;
21507;SDS011;10915;54.352;9.074;2022-10-13T13:55:31;38.13;;;29.60;;
21507;SDS011;10915;54.352;9.074;2022-10-13T13:57:57;37.73;;;29.53;;
21507;SDS011;10915;54.352;9.074;2022-10-13T14:00:23;39.03;;;27.77;;
21507;SDS011;10915;54.352;9.074;2022-10-13T14:02:52;36.83;;;29.27;;
21507;SDS011;10915;54.352;9.074;2022-10-13T14:05:22;40.80;;;29.93;;
21507;SDS011;10915;54.352;9.074;2022-10-13T14:07:47;43.73;;;29.77;;
21507;SDS011;10915;54.352;9.074;2022-10-13T14:10:13;37.27;;;27.30;;
21507;SDS011;10915;54.352;9.074;2022-10-13T14:12:39;39.03;;;29.33;;
21507;SDS011;10915;54.352;9.074;2022-10-13T14:15:04;39.50;;;28.37;;
21507;SDS011;10915;54.352;9.074;2022-10-13T14:17:30;37.73;;;28.83;;
21507;SDS011;10915;54.352;9.074;2022-10-13T14:19:56;36.07;;;28.23;;
21507;SDS011;10915;54.352;9.074;2022-10-13T14:22:22;42.43;;;30.13;;
21507;SDS011;10915;54.352;9.074;2022-10-13T14:24:47;39.53;;;29.97;;
21507;SDS011;10915;54.352;9.074;2022-10-13T14:27:13;45.03;;;31.37;;
21507;SDS011;10915;54.352;9.074;2022-10-13T14:29:39;42.43;;;30.70;;
21507;SDS011;10915;54.352;9.074;2022-10-13T14:32:04;44.90;;;32.37;;
21507;SDS011;10915;54.352;9.074;2022-10-13T14:34:30;41.37;;;30.43;;
21507;SDS011;10915;54.352;9.074;2022-10-13T14:36:57;43.57;;;33.37;;
21507;SDS011;10915;54.352;9.074;2022-10-13T14:39:26;48.30;;;34.57;;
21507;SDS011;10915;54.352;9.074;2022-10-13T14:41:51;43.87;;;31.87;;
21507;SDS011;10915;54.352;9.074;2022-10-13T14:44:17;41.50;;;32.90;;
21507;SDS011;10915;54.352;9.074;2022-10-13T14:46:43;44.20;;;32.40;;
21507;SDS011;10915;54.352;9.074;2022-10-13T14:49:09;40.83;;;32.80;;
21507;SDS011;10915;54.352;9.074;2022-10-13T14:51:35;44.50;;;33.27;;
21507;SDS011;10915;54.352;9.074;2022-10-13T14:54:00;45.63;;;34.67;;
21507;SDS011;10915;54.352;9.074;2022-10-13T14:56:28;45.40;;;36.03;;
21507;SDS011;10915;54.352;9.074;2022-10-13T14:58:58;44.87;;;34.50;;
21507;SDS011;10915;54.352;9.074;2022-10-13T15:01:26;46.23;;;32.73;;
21507;SDS011;10915;54.352;9.074;2022-10-13T15:03:52;48.03;;;34.30;;
21507;SDS011;10915;54.352;9.074;2022-10-13T15:06:22;44.27;;;34.27;;
21507;SDS011;10915;54.352;9.074;2022-10-13T15:08:49;43.80;;;34.50;;
21507;SDS011;10915;54.352;9.074;2022-10-13T15:11:15;47.90;;;35.23;;
21507;SDS011;10915;54.352;9.074;2022-10-13T15:13:43;53.83;;;36.90;;
21507;SDS011;10915;54.352;9.074;2022-10-13T15:16:13;51.23;;;36.07;;
21507;SDS011;10915;54.352;9.074;2022-10-13T15:18:44;48.00;;;36.27;;
21507;SDS011;10915;54.352;9.074;2022-10-13T15:21:10;49.53;;;34.57;;
21507;SDS011;10915;54.352;9.074;2022-10-13T15:23:35;47.90;;;37.50;;
21507;SDS011;10915;54.352;9.074;2022-10-13T15:26:01;47.87;;;36.83;;
21507;SDS011;10915;54.352;9.074;2022-10-13T15:28:29;49.80;;;37.33;;
21507;SDS011;10915;54.352;9.074;2022-10-13T15:31:05;44.70;;;34.87;;
21507;SDS011;10915;54.352;9.074;2022-10-13T15:33:30;53.40;;;38.47;;
21507;SDS011;10915;54.352;9.074;2022-10-13T15:35:57;43.83;;;33.33;;
21507;SDS011;10915;54.352;9.074;2022-10-13T15:38:23;42.97;;;34.53;;
21507;SDS011;10915;54.352;9.074;2022-10-13T15:40:48;47.60;;;33.97;;
21507;SDS011;10915;54.352;9.074;2022-10-13T15:43:14;52.90;;;34.67;;
21507;SDS011;10915;54.352;9.074;2022-10-13T15:45:40;43.80;;;31.87;;
21507;SDS011;10915;54.352;9.074;2022-10-13T15:48:07;42.33;;;34.53;;
21507;SDS011;10915;54.352;9.074;2022-10-13T15:50:37;41.60;;;32.93;;
21507;SDS011;10915;54.352;9.074;2022-10-13T15:53:03;49.37;;;36.43;;
21507;SDS011;10915;54.352;9.074;2022-10-13T15:55:29;48.57;;;35.40;;
21507;SDS011;10915;54.352;9.074;2022-10-13T15:57:55;51.43;;;37.47;;
21507;SDS011;10915;54.352;9.074;2022-10-13T16:00:21;47.63;;;35.67;;
21507;SDS011;10915;54.352;9.074;2022-10-13T16:02:47;49.80;;;36.20;;
21507;SDS011;10915;54.352;9.074;2022-10-13T16:05:14;56.80;;;38.70;;
21507;SDS011;10915;54.352;9.074;2022-10-13T16:07:40;45.57;;;35.93;;
21507;SDS011;10915;54.352;9.074;2022-10-13T16:10:06;51.33;;;36.43;;
21507;SDS011;10915;54.352;9.074;2022-10-13T16:12:33;56.77;;;37.20;;
21507;SDS011;10915;54.352;9.074;2022-10-13T16:14:59;55.40;;;38.07;;
21507;SDS011;10915;54.352;9.074;2022-10-13T16:17:24;45.67;;;33.27;;
21507;SDS011;10915;54.352;9.074;2022-10-13T16:19:50;48.13;;;35.43;;
21507;SDS011;10915;54.352;9.074;2022-10-13T16:22:16;47.70;;;35.67;;
21507;SDS011;10915;54.352;9.074;2022-10-13T16:24:42;47.97;;;35.70;;
21507;SDS011;10915;54.352;9.074;2022-10-13T16:27:08;48.70;;;34.90;;
21507;SDS011;10915;54.352;9.074;2022-10-13T16:29:33;49.50;;;35.87;;
21507;SDS011;10915;54.352;9.074;2022-10-13T16:31:59;49.07;;;36.00;;
21507;SDS011;10915;54.352;9.074;2022-10-13T16:34:25;50.70;;;36.60;;
21507;SDS011;10915;54.352;9.074;2022-10-13T16:36:51;52.00;;;35.30;;
21507;SDS011;10915;54.352;9.074;2022-10-13T16:39:17;45.73;;;35.37;;
21507;SDS011;10915;54.352;9.074;2022-10-13T16:41:42;56.10;;;38.83;;
21507;SDS011;10915;54.352;9.074;2022-10-13T16:44:08;51.40;;;37.13;;
21507;SDS011;10915;54.352;9.074;2022-10-13T16:46:34;43.97;;;33.63;;